createdAt,value
2019-05-26T00:01:24.851Z,11.40
2019-05-26T00:02:57.133Z,12.15
2019-05-26T00:04:29.406Z,11.93
2019-05-26T00:06:01.658Z,11.78
2019-05-26T00:07:33.800Z,10.75
2019-05-26T00:09:06.044Z,11.43
2019-05-26T00:10:38.318Z,11.30
2019-05-26T00:12:10.622Z,11.90
2019-05-26T00:13:42.855Z,10.85
2019-05-26T00:15:15.045Z,11.12
2019-05-26T00:16:47.246Z,11.20
2019-05-26T00:18:19.385Z,12.05
2019-05-26T00:19:51.499Z,11.53
2019-05-26T00:21:23.769Z,10.60
2019-05-26T00:22:55.863Z,11.15
2019-05-26T00:24:27.948Z,11.28
2019-05-26T00:26:00.246Z,11.60
2019-05-26T00:27:32.455Z,11.12
2019-05-26T00:29:04.524Z,11.43
2019-05-26T00:30:36.781Z,11.00
2019-05-26T00:32:08.989Z,13.88
2019-05-26T00:33:41.104Z,11.12
2019-05-26T00:35:13.343Z,11.63
2019-05-26T00:36:45.589Z,12.03
2019-05-26T00:38:17.795Z,11.35
2019-05-26T00:39:49.903Z,12.03
2019-05-26T00:41:22.172Z,12.20
2019-05-26T00:42:54.300Z,12.63
2019-05-26T00:44:26.427Z,12.28
2019-05-26T00:45:58.536Z,12.68
2019-05-26T00:47:30.837Z,13.22
2019-05-26T00:49:03.506Z,14.47
2019-05-26T00:50:35.829Z,13.30
2019-05-26T00:52:08.033Z,12.85
2019-05-26T00:53:40.289Z,13.10
2019-05-26T00:55:12.711Z,13.00
2019-05-26T00:56:44.826Z,12.55
2019-05-26T00:58:16.949Z,12.90
2019-05-26T00:59:49.222Z,13.18
2019-05-26T01:01:21.495Z,13.55
2019-05-26T01:02:53.721Z,12.90
2019-05-26T01:04:26.032Z,13.55
2019-05-26T01:05:58.096Z,14.78
2019-05-26T01:07:30.340Z,12.93
2019-05-26T01:09:04.147Z,12.80
2019-05-26T01:10:36.257Z,13.32
2019-05-26T01:12:08.478Z,13.95
2019-05-26T01:13:40.546Z,12.70
2019-05-26T01:15:12.748Z,12.95
2019-05-26T01:16:44.942Z,13.65
2019-05-26T01:18:17.048Z,13.20
2019-05-26T01:19:49.339Z,12.75
2019-05-26T01:21:21.574Z,12.93
2019-05-26T01:22:54.107Z,13.30
2019-05-26T01:24:26.475Z,13.20
2019-05-26T01:25:58.625Z,14.15
2019-05-26T01:27:30.728Z,13.70
2019-05-26T01:29:03.070Z,13.20
2019-05-26T01:30:36.517Z,12.40
2019-05-26T01:32:08.695Z,13.30
2019-05-26T01:33:40.978Z,13.93
2019-05-26T01:35:13.215Z,13.03
2019-05-26T01:36:45.613Z,12.68
2019-05-26T01:38:24.314Z,14.93
2019-05-26T01:39:52.963Z,12.78
2019-05-26T01:41:25.156Z,14.63
2019-05-26T01:42:57.520Z,15.83
2019-05-26T01:44:29.663Z,13.30
2019-05-26T01:46:01.784Z,12.18
2019-05-26T01:47:33.864Z,12.23
2019-05-26T01:49:06.026Z,13.08
2019-05-26T01:50:38.180Z,13.08
2019-05-26T01:52:10.294Z,13.20
2019-05-26T01:53:42.597Z,12.95
2019-05-26T01:55:14.828Z,12.80
2019-05-26T01:56:46.946Z,12.85
2019-05-26T01:58:19.071Z,13.85
2019-05-26T01:59:51.126Z,12.68
2019-05-26T02:01:23.360Z,13.43
2019-05-26T02:02:55.599Z,14.15
2019-05-26T02:04:27.808Z,13.20
2019-05-26T02:05:59.935Z,13.10
2019-05-26T02:07:32.448Z,13.18
2019-05-26T02:09:06.256Z,12.95
2019-05-26T02:10:38.487Z,12.90
2019-05-26T02:12:10.730Z,12.45
2019-05-26T02:13:42.857Z,13.40
2019-05-26T02:15:17.372Z,12.35
2019-05-26T02:16:49.648Z,13.98
2019-05-26T02:18:21.975Z,13.78
2019-05-26T02:19:54.129Z,13.43
2019-05-26T02:21:26.342Z,13.68
2019-05-26T02:22:58.435Z,13.43
2019-05-26T02:24:30.996Z,12.75
2019-05-26T02:26:03.359Z,14.98
2019-05-26T02:27:35.475Z,15.28
2019-05-26T02:29:07.704Z,14.05
2019-05-26T02:30:39.840Z,13.55
2019-05-26T02:32:11.959Z,13.18
2019-05-26T02:33:44.238Z,14.03
2019-05-26T02:35:16.635Z,13.22
2019-05-26T02:36:48.709Z,13.48
2019-05-26T02:38:25.666Z,13.55
2019-05-26T02:39:54.999Z,13.43
2019-05-26T02:41:27.267Z,15.15
2019-05-26T02:42:59.643Z,13.93
2019-05-26T02:44:31.885Z,15.20
2019-05-26T02:46:04.107Z,14.63
2019-05-26T02:47:36.365Z,14.58
2019-05-26T02:49:08.617Z,14.25
2019-05-26T02:50:40.692Z,13.72
2019-05-26T02:52:12.937Z,13.70
2019-05-26T02:53:45.247Z,13.72
2019-05-26T02:55:17.878Z,13.88
2019-05-26T02:56:50.021Z,13.95
2019-05-26T02:58:22.317Z,15.93
2019-05-26T02:59:54.457Z,13.83
2019-05-26T03:01:27.061Z,13.83
2019-05-26T03:02:59.319Z,15.23
2019-05-26T03:04:31.882Z,13.62
2019-05-26T03:06:04.689Z,13.75
2019-05-26T03:07:39.694Z,16.82
2019-05-26T03:09:22.821Z,13.28
2019-05-26T03:10:49.533Z,13.55
2019-05-26T03:12:23.706Z,14.38
2019-05-26T03:13:58.864Z,14.33
2019-05-26T03:15:33.753Z,14.35
2019-05-26T03:17:05.878Z,13.85
2019-05-26T03:18:39.628Z,14.33
2019-05-26T03:20:13.872Z,14.38
2019-05-26T03:21:47.825Z,16.80
2019-05-26T03:23:19.995Z,14.45
2019-05-26T03:24:53.110Z,15.08
2019-05-26T03:26:27.400Z,14.35
2019-05-26T03:27:59.718Z,14.65
2019-05-26T03:29:32.003Z,15.32
2019-05-26T03:31:04.105Z,16.30
2019-05-26T03:32:36.264Z,16.10
2019-05-26T03:34:08.431Z,15.05
2019-05-26T03:35:40.665Z,15.58
2019-05-26T03:37:12.814Z,19.15
2019-05-26T03:38:45.161Z,17.90
2019-05-26T03:40:17.398Z,16.90
2019-05-26T03:41:49.595Z,16.45
2019-05-26T03:43:21.833Z,17.95
2019-05-26T03:44:53.989Z,17.73
2019-05-26T03:46:26.228Z,16.70
2019-05-26T03:47:58.489Z,16.55
2019-05-26T03:49:30.585Z,16.70
2019-05-26T03:51:02.861Z,16.20
2019-05-26T03:52:34.941Z,16.77
2019-05-26T03:54:07.394Z,15.65
2019-05-26T03:55:39.485Z,17.02
2019-05-26T03:57:11.660Z,16.95
2019-05-26T03:58:43.786Z,15.88
2019-05-26T04:00:16.038Z,17.60
2019-05-26T04:01:48.335Z,16.48
2019-05-26T04:03:20.484Z,15.43
2019-05-26T04:04:52.756Z,16.52
2019-05-26T04:06:24.960Z,16.75
2019-05-26T04:07:57.199Z,15.63
2019-05-26T04:09:29.422Z,15.75
2019-05-26T04:11:01.666Z,16.77
2019-05-26T04:12:33.917Z,16.57
2019-05-26T04:14:06.002Z,17.00
2019-05-26T04:15:38.204Z,20.55
2019-05-26T04:17:10.469Z,16.57
2019-05-26T04:18:42.775Z,17.05
2019-05-26T04:20:15.007Z,17.98
2019-05-26T04:21:47.263Z,17.30
2019-05-26T04:23:19.558Z,18.52
2019-05-26T04:24:57.670Z,16.52
2019-05-26T04:26:29.783Z,16.82
2019-05-26T04:28:01.858Z,17.48
2019-05-26T04:29:34.025Z,16.95
2019-05-26T04:31:06.280Z,20.55
2019-05-26T04:32:38.423Z,16.82
2019-05-26T04:34:10.649Z,17.98
2019-05-26T04:35:42.734Z,17.00
2019-05-26T04:37:14.979Z,17.07
2019-05-26T04:38:47.172Z,18.12
2019-05-26T04:40:28.086Z,16.07
2019-05-26T04:41:53.496Z,16.87
2019-05-26T04:43:25.609Z,18.90
2019-05-26T04:44:57.719Z,18.12
2019-05-26T04:46:30.006Z,17.20
2019-05-26T04:48:02.123Z,17.50
2019-05-26T04:49:37.439Z,16.95
2019-05-26T04:51:08.535Z,17.62
2019-05-26T04:52:40.840Z,16.73
2019-05-26T04:54:13.145Z,16.23
2019-05-26T04:55:45.305Z,16.73
2019-05-26T04:57:17.544Z,18.05
2019-05-26T04:58:49.833Z,16.32
2019-05-26T05:00:22.060Z,17.12
2019-05-26T05:01:54.311Z,18.32
2019-05-26T05:03:26.555Z,15.30
2019-05-26T05:04:58.690Z,15.95
2019-05-26T05:06:30.987Z,15.25
2019-05-26T05:08:03.091Z,15.20
2019-05-26T05:09:35.209Z,15.65
2019-05-26T05:11:07.411Z,18.07
2019-05-26T05:12:39.636Z,14.58
2019-05-26T05:14:11.757Z,14.35
2019-05-26T05:15:44.000Z,16.20
2019-05-26T05:17:16.278Z,14.80
2019-05-26T05:18:48.350Z,13.35
2019-05-26T05:20:20.461Z,17.15
2019-05-26T05:21:52.691Z,14.55
2019-05-26T05:23:24.796Z,14.63
2019-05-26T05:24:57.274Z,13.88
2019-05-26T05:26:29.408Z,14.00
2019-05-26T05:28:01.516Z,13.78
2019-05-26T05:29:33.826Z,13.55
2019-05-26T05:31:06.100Z,13.60
2019-05-26T05:32:38.332Z,15.85
2019-05-26T05:34:10.414Z,14.07
2019-05-26T05:35:42.565Z,13.83
2019-05-26T05:37:14.811Z,13.80
2019-05-26T05:38:47.056Z,14.50
2019-05-26T05:40:21.084Z,17.23
2019-05-26T05:41:53.181Z,13.85
2019-05-26T05:43:25.375Z,14.85
2019-05-26T05:44:57.520Z,13.38
2019-05-26T05:46:29.859Z,13.43
2019-05-26T05:48:02.843Z,12.75
2019-05-26T05:49:34.920Z,14.35
2019-05-26T05:51:07.227Z,13.98
2019-05-26T05:52:39.487Z,13.53
2019-05-26T05:54:11.565Z,15.10
2019-05-26T05:55:43.856Z,13.40
2019-05-26T05:57:16.121Z,13.93
2019-05-26T05:58:48.207Z,13.75
2019-05-26T06:00:20.422Z,13.18
2019-05-26T06:01:52.553Z,13.62
2019-05-26T06:03:24.686Z,14.30
2019-05-26T06:04:56.884Z,13.83
2019-05-26T06:06:29.085Z,13.58
2019-05-26T06:08:01.340Z,13.48
2019-05-26T06:09:33.564Z,14.20
2019-05-26T06:11:16.038Z,16.05
2019-05-26T06:12:39.994Z,14.00
2019-05-26T06:14:12.226Z,13.85
2019-05-26T06:15:44.455Z,14.18
2019-05-26T06:17:16.555Z,14.78
2019-05-26T06:18:48.767Z,16.10
2019-05-26T06:20:20.832Z,16.30
2019-05-26T06:21:53.116Z,16.90
2019-05-26T06:23:25.234Z,17.35
2019-05-26T06:24:57.325Z,16.90
2019-05-26T06:26:29.414Z,15.75
2019-05-26T06:28:01.696Z,15.85
2019-05-26T06:29:33.899Z,15.93
2019-05-26T06:31:06.112Z,16.17
2019-05-26T06:32:38.274Z,14.90
2019-05-26T06:34:10.390Z,15.83
2019-05-26T06:35:42.620Z,15.08
2019-05-26T06:37:14.786Z,15.08
2019-05-26T06:38:46.904Z,15.30
2019-05-26T06:40:19.148Z,16.45
2019-05-26T06:41:51.277Z,15.32
2019-05-26T06:43:23.438Z,16.07
2019-05-26T06:44:55.541Z,16.30
2019-05-26T06:46:27.686Z,16.23
2019-05-26T06:47:59.785Z,14.58
2019-05-26T06:49:31.885Z,16.73
2019-05-26T06:51:04.116Z,14.87
2019-05-26T06:52:36.184Z,15.45
2019-05-26T06:54:08.283Z,15.38
2019-05-26T06:55:40.524Z,14.73
2019-05-26T06:57:12.820Z,16.48
2019-05-26T06:58:44.959Z,15.30
2019-05-26T07:00:17.297Z,14.73
2019-05-26T07:01:49.437Z,14.13
2019-05-26T07:03:21.570Z,14.70
2019-05-26T07:04:53.813Z,16.05
2019-05-26T07:06:26.048Z,14.33
2019-05-26T07:07:58.345Z,14.87
2019-05-26T07:09:30.625Z,14.40
2019-05-26T07:11:02.902Z,13.85
2019-05-26T07:12:35.173Z,13.57
2019-05-26T07:14:07.460Z,12.78
2019-05-26T07:15:39.698Z,15.00
2019-05-26T07:17:11.820Z,13.70
2019-05-26T07:18:44.076Z,15.13
2019-05-26T07:20:16.602Z,15.57
2019-05-26T07:21:48.762Z,14.13
2019-05-26T07:23:21.008Z,12.77
2019-05-26T07:24:53.240Z,13.20
2019-05-26T07:26:25.357Z,14.17
2019-05-26T07:27:57.536Z,14.20
2019-05-26T07:29:29.669Z,12.90
2019-05-26T07:31:01.776Z,12.80
2019-05-26T07:32:34.049Z,11.50
2019-05-26T07:34:06.176Z,11.87
2019-05-26T07:35:38.564Z,15.83
2019-05-26T07:37:10.649Z,12.27
2019-05-26T07:38:42.948Z,11.80
2019-05-26T07:40:15.152Z,12.13
2019-05-26T07:41:47.391Z,12.57
2019-05-26T07:43:19.548Z,11.60
2019-05-26T07:44:51.756Z,10.80
2019-05-26T07:46:23.878Z,11.23
2019-05-26T07:47:56.116Z,12.80
2019-05-26T07:49:28.215Z,12.00
2019-05-26T07:51:00.336Z,12.43
2019-05-26T07:52:32.398Z,11.10
2019-05-26T07:54:04.522Z,10.80
2019-05-26T07:55:36.608Z,11.00
2019-05-26T07:57:08.722Z,9.43
2019-05-26T07:58:40.952Z,9.10
2019-05-26T08:00:13.363Z,8.80
2019-05-26T08:01:45.587Z,8.57
2019-05-26T08:03:17.830Z,10.57
2019-05-26T08:04:49.939Z,11.00
2019-05-26T08:06:22.046Z,10.17
2019-05-26T08:08:11.236Z,9.97
2019-05-26T08:09:28.274Z,9.40
2019-05-26T08:11:00.534Z,9.50
2019-05-26T08:12:32.627Z,8.00
2019-05-26T08:14:04.729Z,8.17
2019-05-26T08:15:37.668Z,8.20
2019-05-26T08:17:09.925Z,8.07
2019-05-26T08:18:42.164Z,9.63
2019-05-26T08:20:15.789Z,8.57
2019-05-26T08:21:48.037Z,8.33
2019-05-26T08:23:20.140Z,8.63
2019-05-26T08:24:52.338Z,8.73
2019-05-26T08:26:24.490Z,7.17
2019-05-26T08:27:56.696Z,7.83
2019-05-26T08:29:28.919Z,8.63
2019-05-26T08:31:01.152Z,7.90
2019-05-26T08:32:33.384Z,7.17
2019-05-26T08:34:05.662Z,7.03
2019-05-26T08:35:37.781Z,7.47
2019-05-26T08:37:10.060Z,7.47
2019-05-26T08:38:42.160Z,7.63
2019-05-26T08:40:17.230Z,6.67
2019-05-26T08:41:51.111Z,6.13
2019-05-26T08:43:23.233Z,6.07
2019-05-26T08:44:55.450Z,6.30
2019-05-26T08:46:27.567Z,6.00
2019-05-26T08:47:59.796Z,6.17
2019-05-26T08:49:32.207Z,6.10
2019-05-26T08:51:04.333Z,7.33
2019-05-26T08:52:36.548Z,6.87
2019-05-26T08:54:08.871Z,7.73
2019-05-26T08:55:41.112Z,7.07
2019-05-26T08:57:13.363Z,7.57
2019-05-26T08:58:45.966Z,6.37
2019-05-26T09:00:18.380Z,7.07
2019-05-26T09:01:50.540Z,6.70
2019-05-26T09:03:22.618Z,5.50
2019-05-26T09:04:54.741Z,6.23
2019-05-26T09:06:26.890Z,7.27
2019-05-26T09:07:58.992Z,6.83
2019-05-26T09:09:31.281Z,6.13
2019-05-26T09:11:03.412Z,7.47
2019-05-26T09:12:35.531Z,6.13
2019-05-26T09:14:07.674Z,5.60
2019-05-26T09:15:41.389Z,5.80
2019-05-26T09:17:13.477Z,5.17
2019-05-26T09:18:45.824Z,5.13
2019-05-26T09:20:19.528Z,4.60
2019-05-26T09:21:51.810Z,4.60
2019-05-26T09:23:24.102Z,4.30
2019-05-26T09:24:56.258Z,4.73
2019-05-26T09:26:28.368Z,4.17
2019-05-26T09:28:00.645Z,4.60
2019-05-26T09:29:32.893Z,4.20
2019-05-26T09:31:05.111Z,3.87
2019-05-26T09:32:37.242Z,4.63
2019-05-26T09:34:09.335Z,4.80
2019-05-26T09:35:41.458Z,4.07
2019-05-26T09:37:13.682Z,3.70
2019-05-26T09:38:45.988Z,3.50
2019-05-26T09:40:18.399Z,4.13
2019-05-26T09:41:50.503Z,4.40
2019-05-26T09:43:22.708Z,4.43
2019-05-26T09:44:54.982Z,5.40
2019-05-26T09:46:27.199Z,5.60
2019-05-26T09:47:59.671Z,5.87
2019-05-26T09:49:31.746Z,5.33
2019-05-26T09:51:04.050Z,6.00
2019-05-26T09:52:36.188Z,5.57
2019-05-26T09:54:08.292Z,6.00
2019-05-26T09:55:40.518Z,7.10
2019-05-26T09:57:12.678Z,6.93
2019-05-26T09:58:44.947Z,6.30
2019-05-26T10:00:17.904Z,8.10
2019-05-26T10:01:50.060Z,7.90
2019-05-26T10:03:22.278Z,8.03
2019-05-26T10:04:54.621Z,7.17
2019-05-26T10:06:26.825Z,6.90
2019-05-26T10:07:59.030Z,7.97
2019-05-26T10:09:31.292Z,8.50
2019-05-26T10:11:03.658Z,7.93
2019-05-26T10:12:35.818Z,8.47
2019-05-26T10:14:08.201Z,7.57
2019-05-26T10:15:40.458Z,7.30
2019-05-26T10:17:12.617Z,6.63
2019-05-26T10:18:44.851Z,8.63
2019-05-26T10:20:17.185Z,7.90
2019-05-26T10:21:49.529Z,8.17
2019-05-26T10:23:21.772Z,6.30
2019-05-26T10:24:53.876Z,5.43
2019-05-26T10:26:26.094Z,5.30
2019-05-26T10:27:58.306Z,6.13
2019-05-26T10:29:30.429Z,5.77
2019-05-26T10:31:02.748Z,6.03
2019-05-26T10:32:35.030Z,5.07
2019-05-26T10:34:07.334Z,5.30
2019-05-26T10:35:39.531Z,4.90
2019-05-26T10:37:11.765Z,4.87
2019-05-26T10:38:43.989Z,4.50
2019-05-26T10:40:16.436Z,4.40
2019-05-26T10:41:48.684Z,4.50
2019-05-26T10:43:20.924Z,5.67
2019-05-26T10:44:53.057Z,5.10
2019-05-26T10:46:25.168Z,5.50
2019-05-26T10:47:57.671Z,17.67
2019-05-26T10:49:29.998Z,6.57
2019-05-26T10:51:02.436Z,8.63
2019-05-26T10:52:34.732Z,5.13
2019-05-26T10:54:06.970Z,6.70
2019-05-26T10:55:39.077Z,7.83
2019-05-26T10:57:11.271Z,5.03
2019-05-26T10:58:43.437Z,71.57
2019-05-26T11:00:16.118Z,7.77
2019-05-26T11:01:48.379Z,12.60
2019-05-26T11:03:20.602Z,8.47
2019-05-26T11:04:52.874Z,5.30
2019-05-26T11:06:25.202Z,8.37
2019-05-26T11:07:57.358Z,12.57
2019-05-26T11:09:29.612Z,5.47
2019-05-26T11:11:01.876Z,10.30
2019-05-26T11:12:34.062Z,6.20
2019-05-26T11:14:06.280Z,5.40
2019-05-26T11:15:38.529Z,5.63
2019-05-26T11:17:10.759Z,5.57
2019-05-26T11:18:42.896Z,20.53
2019-05-26T11:20:15.407Z,37.20
2019-05-26T11:21:47.510Z,6.10
2019-05-26T11:23:19.860Z,6.67
2019-05-26T11:24:52.038Z,7.00
2019-05-26T11:26:24.198Z,6.70
2019-05-26T11:27:56.419Z,6.00
2019-05-26T11:29:28.775Z,6.00
2019-05-26T11:31:00.944Z,5.30
2019-05-26T11:32:33.217Z,5.80
2019-05-26T11:34:05.298Z,10.50
2019-05-26T11:35:37.446Z,9.37
2019-05-26T11:37:09.731Z,5.83
2019-05-26T11:38:41.867Z,4.40
2019-05-26T11:40:14.217Z,3.10
2019-05-26T11:41:54.587Z,2.80
2019-05-26T11:43:20.729Z,3.13
2019-05-26T11:44:52.915Z,3.67
2019-05-26T11:46:25.013Z,3.70
2019-05-26T11:47:57.137Z,4.10
2019-05-26T11:49:29.369Z,4.10
2019-05-26T11:51:01.794Z,3.30
2019-05-26T11:52:33.841Z,4.13
2019-05-26T11:54:06.100Z,2.80
2019-05-26T11:55:38.343Z,2.70
2019-05-26T11:57:10.444Z,2.40
2019-05-26T11:58:42.731Z,2.50
2019-05-26T12:00:15.729Z,2.80
2019-05-26T12:01:48.016Z,2.63
2019-05-26T12:03:20.102Z,2.40
2019-05-26T12:04:52.382Z,2.53
2019-05-26T12:06:24.703Z,2.17
2019-05-26T12:07:56.811Z,2.10
2019-05-26T12:09:28.981Z,2.40
2019-05-26T12:11:01.112Z,2.13
2019-05-26T12:12:33.243Z,2.37
2019-05-26T12:14:05.442Z,2.10
2019-05-26T12:15:37.580Z,2.10
2019-05-26T12:17:09.772Z,1.93
2019-05-26T12:18:42.016Z,2.10
2019-05-26T12:20:14.270Z,1.80
2019-05-26T12:21:46.356Z,1.90
2019-05-26T12:23:18.597Z,1.97
2019-05-26T12:24:50.893Z,1.80
2019-05-26T12:26:23.026Z,2.00
2019-05-26T12:27:55.417Z,1.87
2019-05-26T12:29:27.608Z,2.10
2019-05-26T12:30:59.683Z,1.90
2019-05-26T12:32:31.921Z,1.80
2019-05-26T12:34:04.033Z,1.90
2019-05-26T12:35:45.655Z,1.93
2019-05-26T12:37:17.913Z,1.70
2019-05-26T12:38:50.151Z,1.80
2019-05-26T12:40:22.234Z,1.73
2019-05-26T12:41:54.370Z,1.70
2019-05-26T12:43:26.516Z,2.20
2019-05-26T12:44:58.632Z,2.30
2019-05-26T12:46:30.756Z,1.97
2019-05-26T12:48:03.112Z,2.00
2019-05-26T12:49:35.395Z,1.90
2019-05-26T12:51:07.577Z,2.20
2019-05-26T12:52:39.843Z,1.87
2019-05-26T12:54:12.114Z,1.90
2019-05-26T12:55:44.343Z,2.73
2019-05-26T12:57:16.612Z,1.77
2019-05-26T12:58:48.715Z,1.93
2019-05-26T13:00:22.431Z,1.80
2019-05-26T13:01:54.652Z,1.90
2019-05-26T13:03:26.891Z,2.07
2019-05-26T13:04:59.020Z,1.60
2019-05-26T13:06:31.260Z,1.70
2019-05-26T13:08:03.792Z,1.60
2019-05-26T13:09:36.070Z,3.03
2019-05-26T13:11:08.195Z,1.47
2019-05-26T13:12:40.426Z,1.60
2019-05-26T13:14:12.674Z,1.80
2019-05-26T13:15:44.907Z,1.70
2019-05-26T13:17:17.078Z,2.10
2019-05-26T13:18:49.152Z,1.70
2019-05-26T13:20:22.874Z,1.80
2019-05-26T13:21:55.100Z,1.90
2019-05-26T13:23:27.340Z,1.40
2019-05-26T13:24:59.454Z,1.83
2019-05-26T13:26:31.692Z,2.03
2019-05-26T13:28:03.968Z,5.20
2019-05-26T13:29:36.363Z,4.90
2019-05-26T13:31:08.660Z,3.03
2019-05-26T13:32:40.768Z,1.87
2019-05-26T13:34:12.880Z,1.70
2019-05-26T13:35:45.112Z,1.73
2019-05-26T13:37:17.368Z,1.57
2019-05-26T13:38:49.534Z,1.60
2019-05-26T13:40:21.767Z,1.47
2019-05-26T13:41:53.904Z,2.77
2019-05-26T13:43:26.040Z,1.80
2019-05-26T13:44:58.276Z,2.00
2019-05-26T13:46:30.383Z,2.10
2019-05-26T13:48:02.688Z,1.70
2019-05-26T13:49:34.775Z,1.97
2019-05-26T13:51:07.058Z,3.70
2019-05-26T13:52:39.311Z,3.30
2019-05-26T13:54:11.556Z,2.27
2019-05-26T13:55:43.623Z,3.13
2019-05-26T13:57:15.857Z,2.60
2019-05-26T13:58:47.981Z,2.37
2019-05-26T14:00:22.438Z,2.20
2019-05-26T14:01:54.760Z,1.97
2019-05-26T14:03:26.870Z,1.63
2019-05-26T14:04:59.255Z,1.57
2019-05-26T14:06:31.578Z,2.13
2019-05-26T14:08:03.834Z,2.40
2019-05-26T14:09:36.099Z,1.47
2019-05-26T14:11:08.192Z,1.67
2019-05-26T14:12:40.428Z,1.67
2019-05-26T14:14:12.656Z,1.60
2019-05-26T14:15:45.810Z,1.93
2019-05-26T14:17:19.186Z,1.63
2019-05-26T14:18:53.600Z,1.73
2019-05-26T14:20:33.281Z,1.87
2019-05-26T14:22:05.561Z,2.10
2019-05-26T14:23:37.854Z,2.27
2019-05-26T14:25:10.119Z,1.50
2019-05-26T14:26:42.369Z,2.37
2019-05-26T14:28:14.645Z,1.20
2019-05-26T14:29:46.752Z,1.60
2019-05-26T14:31:18.868Z,1.53
2019-05-26T14:32:51.042Z,1.70
2019-05-26T14:34:23.416Z,1.90
2019-05-26T14:35:55.623Z,2.63
2019-05-26T14:37:27.865Z,1.70
2019-05-26T14:39:00.222Z,1.97
2019-05-26T14:40:32.311Z,1.80
2019-05-26T14:42:04.546Z,2.00
2019-05-26T14:43:36.632Z,1.80
2019-05-26T14:45:08.736Z,7.37
2019-05-26T14:46:40.871Z,2.50
2019-05-26T14:48:13.092Z,4.33
2019-05-26T14:49:45.218Z,3.37
2019-05-26T14:51:17.490Z,2.30
2019-05-26T14:52:49.698Z,1.83
2019-05-26T14:54:21.912Z,2.20
2019-05-26T14:55:54.040Z,1.90
2019-05-26T14:57:26.286Z,5.37
2019-05-26T14:58:58.490Z,2.93
2019-05-26T15:00:30.585Z,1.90
2019-05-26T15:02:02.840Z,2.00
2019-05-26T15:03:35.201Z,1.77
2019-05-26T15:05:08.152Z,1.63
2019-05-26T15:06:40.405Z,2.03
2019-05-26T15:08:12.685Z,2.10
2019-05-26T15:09:44.876Z,1.90
2019-05-26T15:11:17.121Z,1.83
2019-05-26T15:12:49.399Z,1.90
2019-05-26T15:14:21.647Z,1.90
2019-05-26T15:16:08.762Z,1.80
2019-05-26T15:17:27.769Z,1.87
2019-05-26T15:18:59.837Z,1.80
2019-05-26T15:20:32.110Z,1.90
2019-05-26T15:22:04.332Z,1.80
2019-05-26T15:23:36.577Z,1.87
2019-05-26T15:25:08.823Z,1.90
2019-05-26T15:26:40.888Z,1.80
2019-05-26T15:28:13.013Z,2.10
2019-05-26T15:29:45.160Z,1.60
2019-05-26T15:31:17.398Z,21.03
2019-05-26T15:32:49.736Z,2.30
2019-05-26T15:34:21.880Z,3.17
2019-05-26T15:35:54.131Z,1.90
2019-05-26T15:37:26.437Z,1.93
2019-05-26T15:38:58.528Z,2.10
2019-05-26T15:40:30.952Z,2.00
2019-05-26T15:42:03.140Z,1.90
2019-05-26T15:43:35.301Z,1.97
2019-05-26T15:45:08.295Z,2.13
2019-05-26T15:46:41.167Z,1.67
2019-05-26T15:48:13.266Z,1.80
2019-05-26T15:49:45.366Z,1.80
2019-05-26T15:51:17.494Z,1.83
2019-05-26T15:52:49.758Z,1.57
2019-05-26T15:54:21.867Z,3.73
2019-05-26T15:55:53.999Z,1.80
2019-05-26T15:57:26.104Z,1.80
2019-05-26T15:58:58.371Z,1.83
2019-05-26T16:00:30.574Z,2.00
2019-05-26T16:02:02.727Z,2.20
2019-05-26T16:03:34.842Z,1.73
2019-05-26T16:05:07.407Z,2.47
2019-05-26T16:06:39.745Z,2.60
2019-05-26T16:08:11.940Z,2.00
2019-05-26T16:09:44.159Z,3.07
2019-05-26T16:11:16.286Z,2.13
2019-05-26T16:12:48.717Z,2.43
2019-05-26T16:14:21.073Z,2.53
2019-05-26T16:15:53.367Z,1.83
2019-05-26T16:17:25.606Z,1.80
2019-05-26T16:18:57.729Z,1.67
2019-05-26T16:20:29.844Z,1.80
2019-05-26T16:22:02.057Z,1.90
2019-05-26T16:23:34.149Z,1.90
2019-05-26T16:25:06.568Z,2.50
2019-05-26T16:26:38.692Z,2.03
2019-05-26T16:28:10.966Z,3.47
2019-05-26T16:29:46.388Z,1.80
2019-05-26T16:31:17.345Z,1.90
2019-05-26T16:32:49.546Z,2.87
2019-05-26T16:34:21.629Z,5.20
2019-05-26T16:35:55.639Z,7.53
2019-05-26T16:37:27.912Z,4.77
2019-05-26T16:39:00.280Z,3.27
2019-05-26T16:40:32.414Z,1.83
2019-05-26T16:42:04.535Z,2.20
2019-05-26T16:43:36.818Z,2.00
2019-05-26T16:45:09.024Z,1.80
2019-05-26T16:46:55.182Z,1.57
2019-05-26T16:48:15.316Z,2.00
2019-05-26T16:49:47.479Z,2.17
2019-05-26T16:51:19.540Z,2.30
2019-05-26T16:52:54.391Z,1.80
2019-05-26T16:54:25.710Z,2.00
2019-05-26T16:55:57.852Z,2.00
2019-05-26T16:57:29.958Z,1.90
2019-05-26T16:59:02.220Z,7.20
2019-05-26T17:00:34.303Z,4.30
2019-05-26T17:02:06.404Z,8.37
2019-05-26T17:03:38.635Z,8.17
2019-05-26T17:05:11.025Z,6.70
2019-05-26T17:06:43.289Z,6.20
2019-05-26T17:08:15.486Z,3.77
2019-05-26T17:09:47.592Z,2.60
2019-05-26T17:11:19.664Z,2.67
2019-05-26T17:12:51.846Z,4.27
2019-05-26T17:14:24.153Z,2.87
2019-05-26T17:15:56.293Z,1.87
2019-05-26T17:17:28.503Z,4.20
2019-05-26T17:19:00.786Z,2.10
2019-05-26T17:20:33.015Z,2.00
2019-05-26T17:22:05.155Z,2.17
2019-05-26T17:23:37.392Z,1.90
2019-05-26T17:25:10.056Z,1.80
2019-05-26T17:26:42.379Z,1.90
2019-05-26T17:28:14.465Z,1.80
2019-05-26T17:29:46.717Z,1.80
2019-05-26T17:31:19.103Z,1.90
2019-05-26T17:32:51.211Z,2.00
2019-05-26T17:34:23.378Z,1.80
2019-05-26T17:35:55.500Z,2.77
2019-05-26T17:37:27.604Z,2.00
2019-05-26T17:38:59.758Z,1.90
2019-05-26T17:40:31.993Z,1.90
2019-05-26T17:42:04.316Z,1.77
2019-05-26T17:43:36.402Z,2.33
2019-05-26T17:45:08.625Z,2.37
2019-05-26T17:46:40.840Z,1.70
2019-05-26T17:48:13.129Z,1.90
2019-05-26T17:49:45.197Z,2.10
2019-05-26T17:51:17.600Z,3.03
2019-05-26T17:52:50.076Z,2.27
2019-05-26T17:54:22.776Z,1.80
2019-05-26T17:56:00.605Z,2.23
2019-05-26T17:57:33.078Z,1.53
2019-05-26T17:59:07.896Z,2.23
2019-05-26T18:00:40.281Z,5.23
2019-05-26T18:02:12.488Z,4.27
2019-05-26T18:03:44.598Z,4.93
2019-05-26T18:05:16.792Z,2.27
2019-05-26T18:06:49.013Z,2.10
2019-05-26T18:08:21.240Z,5.10
2019-05-26T18:09:53.522Z,3.43
2019-05-26T18:11:25.754Z,2.50
2019-05-26T18:12:57.966Z,2.33
2019-05-26T18:14:30.237Z,1.73
2019-05-26T18:16:02.598Z,1.90
2019-05-26T18:17:46.329Z,1.87
2019-05-26T18:19:08.756Z,1.73
2019-05-26T18:20:41.059Z,1.73
2019-05-26T18:22:14.690Z,1.67
2019-05-26T18:23:46.900Z,1.27
2019-05-26T18:25:19.061Z,1.70
2019-05-26T18:26:51.178Z,1.53
2019-05-26T18:28:23.426Z,1.20
2019-05-26T18:29:55.711Z,1.60
2019-05-26T18:31:29.195Z,1.40
2019-05-26T18:33:01.595Z,1.57
2019-05-26T18:34:33.881Z,1.40
2019-05-26T18:36:06.172Z,1.67
2019-05-26T18:37:38.261Z,1.67
2019-05-26T18:39:10.370Z,1.60
2019-05-26T18:40:42.617Z,1.63
2019-05-26T18:42:14.889Z,1.50
2019-05-26T18:43:46.975Z,1.30
2019-05-26T18:45:19.181Z,1.40
2019-05-26T18:46:53.524Z,1.50
2019-05-26T18:48:25.340Z,1.50
2019-05-26T18:49:57.618Z,1.30
2019-05-26T18:51:29.869Z,1.70
2019-05-26T18:53:01.992Z,1.37
2019-05-26T18:54:34.155Z,1.57
2019-05-26T18:56:06.391Z,1.83
2019-05-26T18:57:38.516Z,1.40
2019-05-26T18:59:10.826Z,1.70
2019-05-26T19:00:43.101Z,1.67
2019-05-26T19:02:15.257Z,1.60
2019-05-26T19:03:47.478Z,1.70
2019-05-26T19:05:32.435Z,2.03
2019-05-26T19:06:53.739Z,1.60
2019-05-26T19:08:25.885Z,1.30
2019-05-26T19:09:58.053Z,1.50
2019-05-26T19:11:30.317Z,2.00
2019-05-26T19:13:02.482Z,1.63
2019-05-26T19:14:34.693Z,1.83
2019-05-26T19:16:07.007Z,1.40
2019-05-26T19:17:39.108Z,1.50
2019-05-26T19:19:11.306Z,1.30
2019-05-26T19:20:43.487Z,1.50
2019-05-26T19:22:15.737Z,1.70
2019-05-26T19:23:47.813Z,1.53
2019-05-26T19:25:20.073Z,2.50
2019-05-26T19:26:52.329Z,1.63
2019-05-26T19:28:24.432Z,1.40
2019-05-26T19:29:56.568Z,2.20
2019-05-26T19:31:29.168Z,1.40
2019-05-26T19:33:01.395Z,1.80
2019-05-26T19:34:33.516Z,1.70
2019-05-26T19:36:09.420Z,1.57
2019-05-26T19:37:39.687Z,1.47
2019-05-26T19:39:11.981Z,1.60
2019-05-26T19:40:44.199Z,1.97
2019-05-26T19:42:16.354Z,3.00
2019-05-26T19:43:48.529Z,1.80
2019-05-26T19:45:20.656Z,1.87
2019-05-26T19:46:53.242Z,1.40
2019-05-26T19:48:35.713Z,3.27
2019-05-26T19:49:59.997Z,1.83
2019-05-26T19:51:32.218Z,1.70
2019-05-26T19:53:04.312Z,1.90
2019-05-26T19:54:36.596Z,1.60
2019-05-26T19:56:08.832Z,1.70
2019-05-26T19:57:40.951Z,1.60
2019-05-26T19:59:13.214Z,1.70
2019-05-26T20:00:45.302Z,1.47
2019-05-26T20:02:18.905Z,2.20
2019-05-26T20:03:51.309Z,1.70
2019-05-26T20:05:23.518Z,1.60
2019-05-26T20:06:55.627Z,1.57
2019-05-26T20:08:27.883Z,1.77
2019-05-26T20:10:00.126Z,1.57
2019-05-26T20:11:32.275Z,1.90
2019-05-26T20:13:04.536Z,1.67